sensor_id;sensor_type;location;lat;lon;timestamp;P1;durP1;ratioP1;P2;durP2;ratioP2
10446;SDS011;5271;44.422;26.092;2023-04-01T00:01:09;0.83;;;0.83;;
10446;SDS011;5271;44.422;26.092;2023-04-01T00:03:38;0.83;;;0.83;;
10446;SDS011;5271;44.422;26.092;2023-04-01T00:06:05;0.90;;;0.90;;
10446;SDS011;5271;44.422;26.092;2023-04-01T00:08:32;0.80;;;0.80;;
10446;SDS011;5271;44.422;26.092;2023-04-01T00:10:59;0.80;;;0.80;;
10446;SDS011;5271;44.422;26.092;2023-04-01T00:13:26;0.83;;;0.83;;
10446;SDS011;5271;44.422;26.092;2023-04-01T00:15:53;0.90;;;0.90;;
10446;SDS011;5271;44.422;26.092;2023-04-01T00:18:22;0.90;;;0.90;;
10446;SDS011;5271;44.422;26.092;2023-04-01T00:20:51;0.90;;;0.90;;
10446;SDS011;5271;44.422;26.092;2023-04-01T00:23:19;0.90;;;0.90;;
10446;SDS011;5271;44.422;26.092;2023-04-01T00:25:46;0.90;;;0.90;;
10446;SDS011;5271;44.422;26.092;2023-04-01T00:28:14;0.90;;;0.90;;
10446;SDS011;5271;44.422;26.092;2023-04-01T00:30:41;0.90;;;0.90;;
10446;SDS011;5271;44.422;26.092;2023-04-01T00:33:08;0.90;;;0.90;;
10446;SDS011;5271;44.422;26.092;2023-04-01T00:35:36;0.87;;;0.87;;
10446;SDS011;5271;44.422;26.092;2023-04-01T00:38:04;0.90;;;0.90;;
10446;SDS011;5271;44.422;26.092;2023-04-01T00:40:32;0.80;;;0.80;;
10446;SDS011;5271;44.422;26.092;2023-04-01T00:43:01;0.90;;;0.90;;
10446;SDS011;5271;44.422;26.092;2023-04-01T00:45:29;0.90;;;0.90;;
10446;SDS011;5271;44.422;26.092;2023-04-01T00:47:59;0.90;;;0.90;;
10446;SDS011;5271;44.422;26.092;2023-04-01T00:50:30;1.00;;;1.00;;
10446;SDS011;5271;44.422;26.092;2023-04-01T00:52:59;0.90;;;0.90;;
10446;SDS011;5271;44.422;26.092;2023-04-01T00:55:29;1.00;;;1.00;;
10446;SDS011;5271;44.422;26.092;2023-04-01T00:57:59;0.90;;;0.90;;
10446;SDS011;5271;44.422;26.092;2023-04-01T01:00:30;0.90;;;0.90;;
10446;SDS011;5271;44.422;26.092;2023-04-01T01:02:57;0.90;;;0.90;;
10446;SDS011;5271;44.422;26.092;2023-04-01T01:05:26;0.90;;;0.90;;
10446;SDS011;5271;44.422;26.092;2023-04-01T01:08:06;0.90;;;0.90;;
10446;SDS011;5271;44.422;26.092;2023-04-01T01:10:40;0.90;;;0.90;;
10446;SDS011;5271;44.422;26.092;2023-04-01T01:13:14;0.90;;;0.90;;
10446;SDS011;5271;44.422;26.092;2023-04-01T01:15:47;0.90;;;0.90;;
10446;SDS011;5271;44.422;26.092;2023-04-01T01:18:19;0.90;;;0.90;;
10446;SDS011;5271;44.422;26.092;2023-04-01T01:21:05;0.90;;;0.90;;
10446;SDS011;5271;44.422;26.092;2023-04-01T01:26:53;0.90;;;0.90;;
10446;SDS011;5271;44.422;26.092;2023-04-01T01:32:18;0.90;;;0.90;;
10446;SDS011;5271;44.422;26.092;2023-04-01T01:37:35;0.90;;;0.90;;
10446;SDS011;5271;44.422;26.092;2023-04-01T01:40:05;1.00;;;1.00;;
10446;SDS011;5271;44.422;26.092;2023-04-01T01:42:35;1.00;;;1.00;;
10446;SDS011;5271;44.422;26.092;2023-04-01T01:45:04;1.00;;;1.00;;
10446;SDS011;5271;44.422;26.092;2023-04-01T01:47:33;1.00;;;1.00;;
10446;SDS011;5271;44.422;26.092;2023-04-01T01:50:02;1.00;;;1.00;;
10446;SDS011;5271;44.422;26.092;2023-04-01T01:52:32;0.97;;;0.97;;
10446;SDS011;5271;44.422;26.092;2023-04-01T01:54:59;1.00;;;1.00;;
10446;SDS011;5271;44.422;26.092;2023-04-01T01:57:26;1.00;;;1.00;;
10446;SDS011;5271;44.422;26.092;2023-04-01T01:59:58;1.00;;;1.00;;
10446;SDS011;5271;44.422;26.092;2023-04-01T02:02:33;1.00;;;1.00;;
10446;SDS011;5271;44.422;26.092;2023-04-01T02:05:00;1.00;;;1.00;;
10446;SDS011;5271;44.422;26.092;2023-04-01T02:07:31;1.00;;;1.00;;
10446;SDS011;5271;44.422;26.092;2023-04-01T02:10:01;1.00;;;1.00;;
10446;SDS011;5271;44.422;26.092;2023-04-01T02:12:29;1.00;;;1.00;;
10446;SDS011;5271;44.422;26.092;2023-04-01T02:14:57;1.00;;;1.00;;
10446;SDS011;5271;44.422;26.092;2023-04-01T02:17:30;1.00;;;1.00;;
10446;SDS011;5271;44.422;26.092;2023-04-01T02:19:59;1.03;;;1.03;;
10446;SDS011;5271;44.422;26.092;2023-04-01T02:22:31;1.00;;;1.00;;
10446;SDS011;5271;44.422;26.092;2023-04-01T02:25:02;1.00;;;1.00;;
10446;SDS011;5271;44.422;26.092;2023-04-01T02:27:32;1.07;;;1.07;;
10446;SDS011;5271;44.422;26.092;2023-04-01T02:29:59;1.00;;;1.00;;
10446;SDS011;5271;44.422;26.092;2023-04-01T02:32:27;1.00;;;1.00;;
10446;SDS011;5271;44.422;26.092;2023-04-01T02:34:54;1.07;;;1.07;;
10446;SDS011;5271;44.422;26.092;2023-04-01T02:37:24;1.00;;;1.00;;
10446;SDS011;5271;44.422;26.092;2023-04-01T02:39:50;1.10;;;1.10;;
10446;SDS011;5271;44.422;26.092;2023-04-01T02:42:19;0.90;;;0.90;;
10446;SDS011;5271;44.422;26.092;2023-04-01T02:44:46;1.00;;;1.00;;
10446;SDS011;5271;44.422;26.092;2023-04-01T02:47:13;1.00;;;1.00;;
10446;SDS011;5271;44.422;26.092;2023-04-01T02:49:39;1.00;;;1.00;;
10446;SDS011;5271;44.422;26.092;2023-04-01T02:52:06;1.10;;;1.10;;
10446;SDS011;5271;44.422;26.092;2023-04-01T02:54:33;1.00;;;1.00;;
10446;SDS011;5271;44.422;26.092;2023-04-01T02:57:00;1.00;;;1.00;;
10446;SDS011;5271;44.422;26.092;2023-04-01T02:59:28;1.00;;;1.00;;
10446;SDS011;5271;44.422;26.092;2023-04-01T03:01:55;1.00;;;1.00;;
10446;SDS011;5271;44.422;26.092;2023-04-01T03:04:21;1.07;;;1.07;;
10446;SDS011;5271;44.422;26.092;2023-04-01T03:06:48;1.00;;;1.00;;
10446;SDS011;5271;44.422;26.092;2023-04-01T03:09:16;1.00;;;1.00;;
10446;SDS011;5271;44.422;26.092;2023-04-01T03:11:43;0.90;;;0.90;;
10446;SDS011;5271;44.422;26.092;2023-04-01T03:14:09;1.00;;;1.00;;
10446;SDS011;5271;44.422;26.092;2023-04-01T03:16:38;1.00;;;1.00;;
10446;SDS011;5271;44.422;26.092;2023-04-01T03:19:04;1.00;;;1.00;;
10446;SDS011;5271;44.422;26.092;2023-04-01T03:21:31;1.00;;;1.00;;
10446;SDS011;5271;44.422;26.092;2023-04-01T03:23:58;1.00;;;1.00;;
10446;SDS011;5271;44.422;26.092;2023-04-01T03:26:25;0.97;;;0.97;;
10446;SDS011;5271;44.422;26.092;2023-04-01T03:28:52;0.90;;;0.90;;
10446;SDS011;5271;44.422;26.092;2023-04-01T03:31:20;1.00;;;1.00;;
10446;SDS011;5271;44.422;26.092;2023-04-01T03:33:48;1.00;;;1.00;;
10446;SDS011;5271;44.422;26.092;2023-04-01T03:36:15;1.10;;;1.10;;
10446;SDS011;5271;44.422;26.092;2023-04-01T03:38:42;1.00;;;1.00;;
10446;SDS011;5271;44.422;26.092;2023-04-01T03:41:11;1.00;;;1.00;;
10446;SDS011;5271;44.422;26.092;2023-04-01T03:43:39;1.00;;;1.00;;
10446;SDS011;5271;44.422;26.092;2023-04-01T03:46:06;1.00;;;1.00;;
10446;SDS011;5271;44.422;26.092;2023-04-01T03:48:33;1.10;;;1.10;;
10446;SDS011;5271;44.422;26.092;2023-04-01T03:51:01;1.00;;;1.00;;
10446;SDS011;5271;44.422;26.092;2023-04-01T03:53:32;1.00;;;1.00;;
10446;SDS011;5271;44.422;26.092;2023-04-01T03:55:58;1.00;;;1.00;;
10446;SDS011;5271;44.422;26.092;2023-04-01T03:58:29;1.10;;;1.10;;
10446;SDS011;5271;44.422;26.092;2023-04-01T04:00:56;1.00;;;1.00;;
10446;SDS011;5271;44.422;26.092;2023-04-01T04:03:23;1.10;;;1.10;;
10446;SDS011;5271;44.422;26.092;2023-04-01T04:05:51;1.00;;;1.00;;
10446;SDS011;5271;44.422;26.092;2023-04-01T04:08:19;1.10;;;1.10;;
10446;SDS011;5271;44.422;26.092;2023-04-01T04:10:46;1.10;;;1.10;;
10446;SDS011;5271;44.422;26.092;2023-04-01T04:13:13;0.90;;;0.90;;
10446;SDS011;5271;44.422;26.092;2023-04-01T04:15:40;1.00;;;1.00;;
10446;SDS011;5271;44.422;26.092;2023-04-01T04:18:06;1.00;;;1.00;;
10446;SDS011;5271;44.422;26.092;2023-04-01T04:20:33;1.00;;;1.00;;
10446;SDS011;5271;44.422;26.092;2023-04-01T04:23:00;1.00;;;1.00;;
10446;SDS011;5271;44.422;26.092;2023-04-01T04:25:28;1.00;;;1.00;;
10446;SDS011;5271;44.422;26.092;2023-04-01T04:27:55;1.10;;;1.10;;
10446;SDS011;5271;44.422;26.092;2023-04-01T04:30:22;1.10;;;1.10;;
10446;SDS011;5271;44.422;26.092;2023-04-01T04:32:49;1.10;;;1.10;;
10446;SDS011;5271;44.422;26.092;2023-04-01T04:35:15;1.00;;;1.00;;
10446;SDS011;5271;44.422;26.092;2023-04-01T04:37:42;1.10;;;1.10;;
10446;SDS011;5271;44.422;26.092;2023-04-01T04:40:09;1.10;;;1.10;;
10446;SDS011;5271;44.422;26.092;2023-04-01T04:42:37;1.10;;;1.10;;
10446;SDS011;5271;44.422;26.092;2023-04-01T04:45:05;1.10;;;1.10;;
10446;SDS011;5271;44.422;26.092;2023-04-01T04:47:32;1.10;;;1.10;;
10446;SDS011;5271;44.422;26.092;2023-04-01T04:49:59;1.00;;;1.00;;
10446;SDS011;5271;44.422;26.092;2023-04-01T04:52:26;1.00;;;1.00;;
10446;SDS011;5271;44.422;26.092;2023-04-01T04:54:52;1.10;;;1.10;;
10446;SDS011;5271;44.422;26.092;2023-04-01T04:57:19;1.10;;;1.10;;
10446;SDS011;5271;44.422;26.092;2023-04-01T04:59:47;1.00;;;1.00;;
10446;SDS011;5271;44.422;26.092;2023-04-01T05:02:14;1.00;;;1.00;;
10446;SDS011;5271;44.422;26.092;2023-04-01T05:04:41;1.00;;;1.00;;
10446;SDS011;5271;44.422;26.092;2023-04-01T05:07:08;1.10;;;1.10;;
10446;SDS011;5271;44.422;26.092;2023-04-01T05:09:35;1.00;;;1.00;;
10446;SDS011;5271;44.422;26.092;2023-04-01T05:12:01;1.00;;;1.00;;
10446;SDS011;5271;44.422;26.092;2023-04-01T05:14:28;1.03;;;1.03;;
10446;SDS011;5271;44.422;26.092;2023-04-01T05:16:57;1.10;;;1.10;;
10446;SDS011;5271;44.422;26.092;2023-04-01T05:19:23;1.10;;;1.10;;
10446;SDS011;5271;44.422;26.092;2023-04-01T05:21:50;1.10;;;1.10;;
10446;SDS011;5271;44.422;26.092;2023-04-01T05:24:17;1.10;;;1.10;;
10446;SDS011;5271;44.422;26.092;2023-04-01T05:26:44;1.10;;;1.10;;
10446;SDS011;5271;44.422;26.092;2023-04-01T05:29:11;1.10;;;1.10;;
10446;SDS011;5271;44.422;26.092;2023-04-01T05:31:38;1.00;;;1.00;;
10446;SDS011;5271;44.422;26.092;2023-04-01T05:34:06;1.10;;;1.10;;
10446;SDS011;5271;44.422;26.092;2023-04-01T05:36:33;1.00;;;1.00;;
10446;SDS011;5271;44.422;26.092;2023-04-01T05:39:00;1.00;;;1.00;;
10446;SDS011;5271;44.422;26.092;2023-04-01T05:41:27;1.10;;;1.10;;
10446;SDS011;5271;44.422;26.092;2023-04-01T05:43:54;1.10;;;1.10;;
10446;SDS011;5271;44.422;26.092;2023-04-01T05:46:21;1.10;;;1.10;;
10446;SDS011;5271;44.422;26.092;2023-04-01T05:48:48;1.10;;;1.10;;
10446;SDS011;5271;44.422;26.092;2023-04-01T05:51:16;1.00;;;1.00;;
10446;SDS011;5271;44.422;26.092;2023-04-01T05:53:43;1.10;;;1.10;;
10446;SDS011;5271;44.422;26.092;2023-04-01T05:56:10;1.10;;;1.10;;
10446;SDS011;5271;44.422;26.092;2023-04-01T05:58:37;1.10;;;1.10;;
10446;SDS011;5271;44.422;26.092;2023-04-01T06:01:05;1.20;;;1.20;;
10446;SDS011;5271;44.422;26.092;2023-04-01T06:03:33;1.10;;;1.10;;
10446;SDS011;5271;44.422;26.092;2023-04-01T06:06:01;1.10;;;1.10;;
10446;SDS011;5271;44.422;26.092;2023-04-01T06:08:30;1.00;;;1.00;;
10446;SDS011;5271;44.422;26.092;2023-04-01T06:11:01;1.10;;;1.10;;
10446;SDS011;5271;44.422;26.092;2023-04-01T06:13:51;1.10;;;1.10;;
10446;SDS011;5271;44.422;26.092;2023-04-01T06:16:35;1.10;;;1.10;;
10446;SDS011;5271;44.422;26.092;2023-04-01T06:19:15;1.10;;;1.10;;
10446;SDS011;5271;44.422;26.092;2023-04-01T06:22:02;1.20;;;1.20;;
10446;SDS011;5271;44.422;26.092;2023-04-01T06:24:47;1.20;;;1.20;;
10446;SDS011;5271;44.422;26.092;2023-04-01T06:27:45;1.20;;;1.20;;
10446;SDS011;5271;44.422;26.092;2023-04-01T06:30:30;1.10;;;1.10;;
10446;SDS011;5271;44.422;26.092;2023-04-01T06:33:05;1.00;;;1.00;;
10446;SDS011;5271;44.422;26.092;2023-04-01T06:38:49;1.10;;;1.10;;
10446;SDS011;5271;44.422;26.092;2023-04-01T06:41:39;1.10;;;1.10;;
10446;SDS011;5271;44.422;26.092;2023-04-01T06:44:28;1.10;;;1.10;;
10446;SDS011;5271;44.422;26.092;2023-04-01T06:47:06;1.10;;;1.10;;
10446;SDS011;5271;44.422;26.092;2023-04-01T06:49:48;1.10;;;1.10;;
10446;SDS011;5271;44.422;26.092;2023-04-01T06:52:23;1.10;;;1.10;;
10446;SDS011;5271;44.422;26.092;2023-04-01T06:54:58;1.10;;;1.10;;
10446;SDS011;5271;44.422;26.092;2023-04-01T06:57:41;1.20;;;1.20;;
10446;SDS011;5271;44.422;26.092;2023-04-01T07:02:41;1.10;;;1.10;;
10446;SDS011;5271;44.422;26.092;2023-04-01T07:05:18;1.10;;;1.10;;
10446;SDS011;5271;44.422;26.092;2023-04-01T07:07:46;1.10;;;1.10;;
10446;SDS011;5271;44.422;26.092;2023-04-01T07:10:16;1.10;;;1.10;;
10446;SDS011;5271;44.422;26.092;2023-04-01T07:12:48;1.10;;;1.10;;
10446;SDS011;5271;44.422;26.092;2023-04-01T07:15:19;1.10;;;1.10;;
10446;SDS011;5271;44.422;26.092;2023-04-01T07:17:52;1.10;;;1.10;;
10446;SDS011;5271;44.422;26.092;2023-04-01T07:20:22;1.10;;;1.10;;
10446;SDS011;5271;44.422;26.092;2023-04-01T07:22:52;1.10;;;1.10;;
10446;SDS011;5271;44.422;26.092;2023-04-01T07:25:23;1.10;;;1.10;;
10446;SDS011;5271;44.422;26.092;2023-04-01T07:27:53;1.00;;;1.00;;
10446;SDS011;5271;44.422;26.092;2023-04-01T07:36:08;1.10;;;1.10;;
10446;SDS011;5271;44.422;26.092;2023-04-01T07:38:44;1.10;;;1.10;;
10446;SDS011;5271;44.422;26.092;2023-04-01T07:41:22;1.07;;;1.07;;
10446;SDS011;5271;44.422;26.092;2023-04-01T07:43:58;1.10;;;1.10;;
10446;SDS011;5271;44.422;26.092;2023-04-01T07:46:37;1.10;;;1.10;;
10446;SDS011;5271;44.422;26.092;2023-04-01T07:49:25;1.10;;;1.10;;
10446;SDS011;5271;44.422;26.092;2023-04-01T07:52:01;1.07;;;1.07;;
10446;SDS011;5271;44.422;26.092;2023-04-01T07:54:37;1.00;;;1.00;;
10446;SDS011;5271;44.422;26.092;2023-04-01T07:57:08;1.10;;;1.10;;
10446;SDS011;5271;44.422;26.092;2023-04-01T07:59:45;1.00;;;1.00;;
10446;SDS011;5271;44.422;26.092;2023-04-01T08:02:23;1.10;;;1.10;;
10446;SDS011;5271;44.422;26.092;2023-04-01T08:04:59;1.00;;;1.00;;
10446;SDS011;5271;44.422;26.092;2023-04-01T08:07:35;1.10;;;1.00;;
10446;SDS011;5271;44.422;26.092;2023-04-01T08:10:09;0.97;;;0.97;;
10446;SDS011;5271;44.422;26.092;2023-04-01T08:12:43;1.00;;;1.00;;
10446;SDS011;5271;44.422;26.092;2023-04-01T08:15:21;1.00;;;1.00;;
10446;SDS011;5271;44.422;26.092;2023-04-01T08:18:01;1.00;;;1.00;;
10446;SDS011;5271;44.422;26.092;2023-04-01T08:20:33;0.90;;;0.90;;
10446;SDS011;5271;44.422;26.092;2023-04-01T08:23:05;1.00;;;1.00;;
10446;SDS011;5271;44.422;26.092;2023-04-01T08:25:37;0.93;;;0.93;;
10446;SDS011;5271;44.422;26.092;2023-04-01T08:28:13;0.90;;;0.90;;
10446;SDS011;5271;44.422;26.092;2023-04-01T08:30:45;0.90;;;0.90;;
10446;SDS011;5271;44.422;26.092;2023-04-01T08:33:17;0.90;;;0.90;;
10446;SDS011;5271;44.422;26.092;2023-04-01T08:35:51;0.90;;;0.90;;
10446;SDS011;5271;44.422;26.092;2023-04-01T08:38:22;1.00;;;1.00;;
10446;SDS011;5271;44.422;26.092;2023-04-01T08:40:59;1.00;;;1.00;;
10446;SDS011;5271;44.422;26.092;2023-04-01T08:46:44;1.00;;;1.00;;
10446;SDS011;5271;44.422;26.092;2023-04-01T08:49:41;0.90;;;0.90;;
10446;SDS011;5271;44.422;26.092;2023-04-01T08:52:33;0.80;;;0.80;;
10446;SDS011;5271;44.422;26.092;2023-04-01T08:55:04;0.90;;;0.90;;
10446;SDS011;5271;44.422;26.092;2023-04-01T08:57:50;0.90;;;0.90;;
10446;SDS011;5271;44.422;26.092;2023-04-01T09:00:32;0.80;;;0.80;;
10446;SDS011;5271;44.422;26.092;2023-04-01T09:03:10;0.80;;;0.80;;
10446;SDS011;5271;44.422;26.092;2023-04-01T09:06:02;0.80;;;0.80;;
10446;SDS011;5271;44.422;26.092;2023-04-01T09:08:53;0.90;;;0.90;;
10446;SDS011;5271;44.422;26.092;2023-04-01T09:11:38;0.80;;;0.80;;
10446;SDS011;5271;44.422;26.092;2023-04-01T09:14:28;0.80;;;0.80;;
10446;SDS011;5271;44.422;26.092;2023-04-01T09:17:18;0.90;;;0.90;;
10446;SDS011;5271;44.422;26.092;2023-04-01T09:20:01;0.90;;;0.90;;
10446;SDS011;5271;44.422;26.092;2023-04-01T09:22:47;0.90;;;0.90;;
10446;SDS011;5271;44.422;26.092;2023-04-01T09:25:45;0.90;;;0.90;;
10446;SDS011;5271;44.422;26.092;2023-04-01T09:28:17;0.90;;;0.90;;
10446;SDS011;5271;44.422;26.092;2023-04-01T09:30:56;0.90;;;0.90;;
10446;SDS011;5271;44.422;26.092;2023-04-01T09:33:41;0.90;;;0.90;;
10446;SDS011;5271;44.422;26.092;2023-04-01T09:36:42;0.90;;;0.90;;
10446;SDS011;5271;44.422;26.092;2023-04-01T09:39:17;0.90;;;0.90;;
10446;SDS011;5271;44.422;26.092;2023-04-01T09:41:57;0.90;;;0.90;;
10446;SDS011;5271;44.422;26.092;2023-04-01T09:44:44;0.90;;;0.90;;
10446;SDS011;5271;44.422;26.092;2023-04-01T09:47:23;0.90;;;0.90;;
10446;SDS011;5271;44.422;26.092;2023-04-01T09:53:06;0.90;;;0.90;;
10446;SDS011;5271;44.422;26.092;2023-04-01T09:55:54;0.90;;;0.90;;
10446;SDS011;5271;44.422;26.092;2023-04-01T09:58:55;0.80;;;0.80;;
10446;SDS011;5271;44.422;26.092;2023-04-01T10:01:54;0.80;;;0.80;;
10446;SDS011;5271;44.422;26.092;2023-04-01T10:05:06;0.80;;;0.80;;
10446;SDS011;5271;44.422;26.092;2023-04-01T10:17:12;0.80;;;0.80;;
10446;SDS011;5271;44.422;26.092;2023-04-01T10:23:07;0.73;;;0.73;;
10446;SDS011;5271;44.422;26.092;2023-04-01T10:32:15;0.73;;;0.73;;
10446;SDS011;5271;44.422;26.092;2023-04-01T10:38:03;0.70;;;0.70;;
10446;SDS011;5271;44.422;26.092;2023-04-01T10:40:58;0.70;;;0.70;;
10446;SDS011;5271;44.422;26.092;2023-04-01T10:44:04;0.70;;;0.70;;
10446;SDS011;5271;44.422;26.092;2023-04-01T10:59:26;0.70;;;0.70;;
10446;SDS011;5271;44.422;26.092;2023-04-01T11:11:47;0.70;;;0.70;;
10446;SDS011;5271;44.422;26.092;2023-04-01T11:20:42;0.80;;;0.80;;
10446;SDS011;5271;44.422;26.092;2023-04-01T11:23:50;0.70;;;0.70;;
10446;SDS011;5271;44.422;26.092;2023-04-01T11:26:32;0.70;;;0.70;;
10446;SDS011;5271;44.422;26.092;2023-04-01T11:32:06;0.80;;;0.80;;
10446;SDS011;5271;44.422;26.092;2023-04-01T11:34:51;0.70;;;0.70;;
10446;SDS011;5271;44.422;26.092;2023-04-01T11:37:30;0.70;;;0.70;;
10446;SDS011;5271;44.422;26.092;2023-04-01T11:40:09;0.63;;;0.63;;
10446;SDS011;5271;44.422;26.092;2023-04-01T11:42:51;0.70;;;0.70;;
10446;SDS011;5271;44.422;26.092;2023-04-01T11:45:30;0.70;;;0.70;;
10446;SDS011;5271;44.422;26.092;2023-04-01T11:48:16;0.80;;;0.80;;
10446;SDS011;5271;44.422;26.092;2023-04-01T11:51:01;0.63;;;0.63;;
10446;SDS011;5271;44.422;26.092;2023-04-01T11:53:44;0.80;;;0.80;;
10446;SDS011;5271;44.422;26.092;2023-04-01T11:56:20;0.80;;;0.80;;
10446;SDS011;5271;44.422;26.092;2023-04-01T11:59:23;0.80;;;0.80;;
10446;SDS011;5271;44.422;26.092;2023-04-01T12:02:08;0.80;;;0.80;;
10446;SDS011;5271;44.422;26.092;2023-04-01T12:04:54;0.70;;;0.70;;
10446;SDS011;5271;44.422;26.092;2023-04-01T12:08:02;0.77;;;0.77;;
10446;SDS011;5271;44.422;26.092;2023-04-01T12:10:38;0.70;;;0.70;;
10446;SDS011;5271;44.422;26.092;2023-04-01T12:13:16;0.70;;;0.70;;
10446;SDS011;5271;44.422;26.092;2023-04-01T12:15:59;0.70;;;0.70;;
10446;SDS011;5271;44.422;26.092;2023-04-01T12:18:35;0.80;;;0.80;;
10446;SDS011;5271;44.422;26.092;2023-04-01T12:21:09;0.70;;;0.70;;
10446;SDS011;5271;44.422;26.092;2023-04-01T12:24:01;0.80;;;0.80;;
10446;SDS011;5271;44.422;26.092;2023-04-01T12:26:59;0.70;;;0.70;;
10446;SDS011;5271;44.422;26.092;2023-04-01T12:29:49;0.70;;;0.70;;
10446;SDS011;5271;44.422;26.092;2023-04-01T12:32:30;0.70;;;0.70;;
10446;SDS011;5271;44.422;26.092;2023-04-01T12:35:19;0.80;;;0.80;;
10446;SDS011;5271;44.422;26.092;2023-04-01T12:37:59;0.70;;;0.70;;
10446;SDS011;5271;44.422;26.092;2023-04-01T12:40:46;0.70;;;0.70;;
10446;SDS011;5271;44.422;26.092;2023-04-01T12:43:33;0.70;;;0.70;;
10446;SDS011;5271;44.422;26.092;2023-04-01T12:46:32;0.70;;;0.70;;
10446;SDS011;5271;44.422;26.092;2023-04-01T12:49:31;0.70;;;0.70;;
10446;SDS011;5271;44.422;26.092;2023-04-01T12:52:10;0.70;;;0.70;;
10446;SDS011;5271;44.422;26.092;2023-04-01T12:57:51;0.70;;;0.70;;
10446;SDS011;5271;44.422;26.092;2023-04-01T13:01:03;0.70;;;0.70;;
10446;SDS011;5271;44.422;26.092;2023-04-01T13:03:58;0.73;;;0.73;;
10446;SDS011;5271;44.422;26.092;2023-04-01T13:06:47;0.70;;;0.70;;
10446;SDS011;5271;44.422;26.092;2023-04-01T13:09:45;0.70;;;0.70;;
10446;SDS011;5271;44.422;26.092;2023-04-01T13:12:35;0.70;;;0.70;;
10446;SDS011;5271;44.422;26.092;2023-04-01T13:15:13;0.77;;;0.77;;
10446;SDS011;5271;44.422;26.092;2023-04-01T13:17:50;0.70;;;0.70;;
10446;SDS011;5271;44.422;26.092;2023-04-01T13:20:27;0.70;;;0.70;;
10446;SDS011;5271;44.422;26.092;2023-04-01T13:23:07;0.70;;;0.70;;
10446;SDS011;5271;44.422;26.092;2023-04-01T13:25:41;0.80;;;0.80;;
10446;SDS011;5271;44.422;26.092;2023-04-01T13:28:14;0.80;;;0.80;;
10446;SDS011;5271;44.422;26.092;2023-04-01T13:30:47;0.70;;;0.70;;
10446;SDS011;5271;44.422;26.092;2023-04-01T13:33:24;0.80;;;0.80;;
10446;SDS011;5271;44.422;26.092;2023-04-01T13:36:00;0.80;;;0.80;;
10446;SDS011;5271;44.422;26.092;2023-04-01T13:38:45;0.90;;;0.90;;
10446;SDS011;5271;44.422;26.092;2023-04-01T13:41:25;0.80;;;0.80;;
10446;SDS011;5271;44.422;26.092;2023-04-01T13:44:09;0.90;;;0.90;;
10446;SDS011;5271;44.422;26.092;2023-04-01T13:49:44;0.90;;;0.90;;
10446;SDS011;5271;44.422;26.092;2023-04-01T13:52:33;0.80;;;0.80;;
10446;SDS011;5271;44.422;26.092;2023-04-01T13:58:31;0.80;;;0.80;;
10446;SDS011;5271;44.422;26.092;2023-04-01T14:01:23;0.80;;;0.80;;
10446;SDS011;5271;44.422;26.092;2023-04-01T14:04:03;0.90;;;0.90;;
10446;SDS011;5271;44.422;26.092;2023-04-01T14:07:00;0.90;;;0.90;;
10446;SDS011;5271;44.422;26.092;2023-04-01T14:09:44;0.90;;;0.90;;
10446;SDS011;5271;44.422;26.092;2023-04-01T14:12:24;1.00;;;1.00;;
10446;SDS011;5271;44.422;26.092;2023-04-01T14:15:04;1.00;;;1.00;;
10446;SDS011;5271;44.422;26.092;2023-04-01T14:17:48;1.10;;;1.10;;
10446;SDS011;5271;44.422;26.092;2023-04-01T14:20:27;1.10;;;1.10;;
10446;SDS011;5271;44.422;26.092;2023-04-01T14:23:05;1.20;;;1.20;;
10446;SDS011;5271;44.422;26.092;2023-04-01T14:26:01;1.10;;;1.10;;
10446;SDS011;5271;44.422;26.092;2023-04-01T14:28:41;1.10;;;1.10;;
10446;SDS011;5271;44.422;26.092;2023-04-01T14:31:27;1.00;;;1.00;;
10446;SDS011;5271;44.422;26.092;2023-04-01T14:34:06;1.00;;;1.00;;
10446;SDS011;5271;44.422;26.092;2023-04-01T14:36:53;1.00;;;1.00;;
10446;SDS011;5271;44.422;26.092;2023-04-01T14:42:45;0.80;;;0.80;;
10446;SDS011;5271;44.422;26.092;2023-04-01T17:01:19;1.60;;;1.60;;
10446;SDS011;5271;44.422;26.092;2023-04-01T17:03:49;1.40;;;1.40;;
10446;SDS011;5271;44.422;26.092;2023-04-01T17:06:22;1.40;;;1.40;;
10446;SDS011;5271;44.422;26.092;2023-04-01T17:08:54;1.30;;;1.30;;
10446;SDS011;5271;44.422;26.092;2023-04-01T17:11:39;1.30;;;1.30;;
10446;SDS011;5271;44.422;26.092;2023-04-01T17:14:13;1.20;;;1.20;;
10446;SDS011;5271;44.422;26.092;2023-04-01T17:19:46;1.13;;;1.13;;
10446;SDS011;5271;44.422;26.092;2023-04-01T17:22:27;1.10;;;1.10;;
10446;SDS011;5271;44.422;26.092;2023-04-01T17:25:13;1.10;;;1.10;;
10446;SDS011;5271;44.422;26.092;2023-04-01T17:27:53;1.00;;;1.00;;
10446;SDS011;5271;44.422;26.092;2023-04-01T17:30:25;1.10;;;1.10;;
10446;SDS011;5271;44.422;26.092;2023-04-01T17:35:57;1.10;;;1.10;;
10446;SDS011;5271;44.422;26.092;2023-04-01T17:38:33;1.10;;;1.10;;
10446;SDS011;5271;44.422;26.092;2023-04-01T17:41:10;1.00;;;1.00;;
10446;SDS011;5271;44.422;26.092;2023-04-01T17:43:46;1.00;;;1.00;;
10446;SDS011;5271;44.422;26.092;2023-04-01T17:46:24;1.00;;;1.00;;
10446;SDS011;5271;44.422;26.092;2023-04-01T17:49:02;1.00;;;1.00;;
10446;SDS011;5271;44.422;26.092;2023-04-01T17:51:46;1.00;;;1.00;;
10446;SDS011;5271;44.422;26.092;2023-04-01T17:54:23;1.00;;;1.00;;
10446;SDS011;5271;44.422;26.092;2023-04-01T17:57:04;1.00;;;1.00;;
10446;SDS011;5271;44.422;26.092;2023-04-01T17:59:49;1.00;;;1.00;;
10446;SDS011;5271;44.422;26.092;2023-04-01T18:02:24;0.90;;;0.90;;
10446;SDS011;5271;44.422;26.092;2023-04-01T18:07:59;1.10;;;1.10;;
10446;SDS011;5271;44.422;26.092;2023-04-01T18:10:40;0.97;;;0.97;;
10446;SDS011;5271;44.422;26.092;2023-04-01T18:13:29;1.00;;;1.00;;
10446;SDS011;5271;44.422;26.092;2023-04-01T18:19:07;1.10;;;1.10;;
10446;SDS011;5271;44.422;26.092;2023-04-01T18:21:43;0.90;;;0.90;;
10446;SDS011;5271;44.422;26.092;2023-04-01T18:24:18;1.00;;;1.00;;
10446;SDS011;5271;44.422;26.092;2023-04-01T18:26:59;1.00;;;1.00;;
10446;SDS011;5271;44.422;26.092;2023-04-01T18:29:32;1.00;;;1.00;;
10446;SDS011;5271;44.422;26.092;2023-04-01T18:32:08;1.00;;;1.00;;
10446;SDS011;5271;44.422;26.092;2023-04-01T18:34:44;0.90;;;0.90;;
10446;SDS011;5271;44.422;26.092;2023-04-01T18:37:22;1.00;;;1.00;;
10446;SDS011;5271;44.422;26.092;2023-04-01T18:39:56;1.00;;;1.00;;
10446;SDS011;5271;44.422;26.092;2023-04-01T18:42:31;0.70;;;0.70;;
10446;SDS011;5271;44.422;26.092;2023-04-01T18:45:14;0.60;;;0.60;;
10446;SDS011;5271;44.422;26.092;2023-04-01T18:47:47;0.70;;;0.70;;
10446;SDS011;5271;44.422;26.092;2023-04-01T18:50:22;0.50;;;0.50;;
10446;SDS011;5271;44.422;26.092;2023-04-01T18:52:56;0.60;;;0.60;;
10446;SDS011;5271;44.422;26.092;2023-04-01T18:55:30;0.70;;;0.70;;
10446;SDS011;5271;44.422;26.092;2023-04-01T18:58:21;0.70;;;0.70;;
10446;SDS011;5271;44.422;26.092;2023-04-01T19:00:55;0.80;;;0.80;;
10446;SDS011;5271;44.422;26.092;2023-04-01T19:03:45;0.80;;;0.80;;
10446;SDS011;5271;44.422;26.092;2023-04-01T19:06:21;0.80;;;0.80;;
10446;SDS011;5271;44.422;26.092;2023-04-01T19:08:53;0.80;;;0.80;;
10446;SDS011;5271;44.422;26.092;2023-04-01T19:11:26;0.90;;;0.90;;
10446;SDS011;5271;44.422;26.092;2023-04-01T19:14:03;0.90;;;0.90;;
10446;SDS011;5271;44.422;26.092;2023-04-01T19:16:43;0.90;;;0.90;;
10446;SDS011;5271;44.422;26.092;2023-04-01T19:19:25;0.90;;;0.90;;
10446;SDS011;5271;44.422;26.092;2023-04-01T19:22:03;0.90;;;0.90;;
10446;SDS011;5271;44.422;26.092;2023-04-01T19:24:51;0.80;;;0.80;;
10446;SDS011;5271;44.422;26.092;2023-04-01T19:27:31;0.90;;;0.90;;
10446;SDS011;5271;44.422;26.092;2023-04-01T19:30:05;0.80;;;0.80;;
10446;SDS011;5271;44.422;26.092;2023-04-01T19:32:45;0.90;;;0.90;;
10446;SDS011;5271;44.422;26.092;2023-04-01T19:35:21;1.00;;;1.00;;
10446;SDS011;5271;44.422;26.092;2023-04-01T19:37:54;0.90;;;0.90;;
10446;SDS011;5271;44.422;26.092;2023-04-01T19:40:31;0.90;;;0.90;;